createdAt,value
2022-12-18T00:01:22.619Z,102.80
2022-12-18T00:03:50.170Z,61.10
2022-12-18T00:06:20.320Z,47.13
2022-12-18T00:08:47.465Z,46.90
2022-12-18T00:11:19.744Z,47.08
2022-12-18T00:13:47.102Z,42.85
2022-12-18T00:16:16.924Z,45.67
2022-12-18T00:18:44.039Z,40.75
2022-12-18T00:21:12.862Z,39.22
2022-12-18T00:23:41.065Z,46.38
2022-12-18T00:26:15.920Z,45.50
2022-12-18T00:28:43.735Z,45.88
2022-12-18T00:31:16.777Z,77.57
2022-12-18T00:33:43.617Z,66.60
2022-12-18T00:36:16.241Z,84.72
2022-12-18T00:38:43.324Z,75.47
2022-12-18T00:41:11.746Z,42.40
2022-12-18T00:43:39.705Z,48.92
2022-12-18T00:46:07.282Z,44.90
2022-12-18T00:48:34.062Z,49.28
2022-12-18T00:51:00.670Z,45.80
2022-12-18T00:53:27.288Z,41.13
2022-12-18T00:55:53.940Z,39.00
2022-12-18T00:58:20.571Z,46.17
2022-12-18T01:00:47.344Z,46.05
2022-12-18T01:03:15.711Z,38.78
2022-12-18T01:05:43.271Z,72.35
2022-12-18T01:08:10.359Z,68.55
2022-12-18T01:10:37.026Z,73.13
2022-12-18T01:13:03.779Z,96.53
2022-12-18T01:15:30.468Z,78.57
2022-12-18T01:17:57.153Z,52.08
2022-12-18T01:20:23.795Z,42.65
2022-12-18T01:22:50.382Z,48.58
2022-12-18T01:25:17.120Z,42.65
2022-12-18T01:27:43.823Z,42.88
2022-12-18T01:30:11.039Z,37.20
2022-12-18T01:32:37.707Z,46.28
2022-12-18T01:35:04.826Z,40.70
2022-12-18T01:37:31.471Z,43.00
2022-12-18T01:39:58.130Z,47.42
2022-12-18T01:42:26.506Z,43.42
2022-12-18T01:44:59.214Z,48.70
2022-12-18T01:47:37.611Z,61.35
2022-12-18T01:50:15.536Z,79.40
2022-12-18T01:52:49.572Z,45.22
2022-12-18T01:55:20.126Z,46.83
2022-12-18T01:57:48.379Z,42.15
2022-12-18T02:00:19.650Z,37.83
2022-12-18T02:02:49.721Z,38.47
2022-12-18T02:05:38.709Z,39.38
2022-12-18T02:08:05.316Z,43.15
2022-12-18T02:11:03.388Z,38.53
2022-12-18T02:13:47.338Z,42.05
2022-12-18T02:16:45.193Z,39.60
2022-12-18T02:19:40.630Z,44.50
2022-12-18T02:22:38.032Z,45.85
2022-12-18T02:25:22.782Z,48.42
2022-12-18T02:27:51.841Z,58.42
2022-12-18T02:30:19.331Z,56.00
2022-12-18T02:32:53.814Z,37.33
2022-12-18T02:35:29.893Z,42.20
2022-12-18T02:37:58.728Z,49.58
2022-12-18T02:40:28.489Z,48.17
2022-12-18T02:42:55.378Z,41.85
2022-12-18T02:45:22.087Z,45.65
2022-12-18T02:47:50.580Z,38.83
2022-12-18T02:50:35.937Z,40.40
2022-12-18T02:53:08.359Z,42.40
2022-12-18T02:55:37.777Z,42.83
2022-12-18T02:58:16.880Z,43.38
2022-12-18T03:00:56.434Z,45.60
2022-12-18T03:03:33.636Z,39.58
2022-12-18T03:06:10.579Z,51.83
2022-12-18T03:08:44.570Z,38.17
2022-12-18T03:11:13.150Z,36.15
2022-12-18T03:13:48.576Z,33.95
2022-12-18T03:16:29.588Z,40.15
2022-12-18T03:19:16.846Z,39.72
2022-12-18T03:21:50.709Z,38.50
2022-12-18T03:24:20.474Z,40.15
2022-12-18T03:26:51.957Z,41.50
2022-12-18T03:29:24.188Z,37.33
2022-12-18T03:34:27.383Z,44.92
2022-12-18T03:36:54.043Z,41.17
2022-12-18T03:39:20.883Z,49.58
2022-12-18T03:42:03.523Z,40.72
2022-12-18T03:44:34.180Z,45.05
2022-12-18T03:47:22.610Z,45.30
2022-12-18T03:49:58.897Z,44.42
2022-12-18T03:52:34.814Z,45.05
2022-12-18T03:55:04.262Z,39.80
2022-12-18T03:57:33.185Z,40.30
2022-12-18T04:00:15.382Z,42.55
2022-12-18T04:02:56.845Z,40.70
2022-12-18T04:05:25.183Z,41.90
2022-12-18T04:07:54.875Z,43.97
2022-12-18T04:10:21.913Z,46.03
2022-12-18T04:12:48.796Z,49.90
2022-12-18T04:15:16.015Z,44.92
2022-12-18T04:17:49.652Z,35.58
2022-12-18T04:20:16.956Z,44.03
2022-12-18T04:22:44.298Z,35.50
2022-12-18T04:25:11.018Z,52.47
2022-12-18T04:27:37.804Z,40.17
2022-12-18T04:30:05.008Z,47.80
2022-12-18T04:32:31.911Z,40.15
2022-12-18T04:34:58.595Z,38.92
2022-12-18T04:37:25.425Z,42.33
2022-12-18T04:39:52.287Z,37.88
2022-12-18T04:42:19.073Z,37.40
2022-12-18T04:44:45.795Z,40.65
2022-12-18T04:47:12.667Z,37.35
2022-12-18T04:49:39.462Z,40.38
2022-12-18T04:52:06.300Z,39.72
2022-12-18T04:54:33.149Z,30.95
2022-12-18T04:56:59.809Z,35.25
2022-12-18T04:59:26.651Z,38.67
2022-12-18T05:01:53.436Z,32.92
2022-12-18T05:04:20.322Z,32.30
2022-12-18T05:06:47.129Z,34.30
2022-12-18T05:09:14.494Z,32.45
2022-12-18T05:11:41.382Z,30.98
2022-12-18T05:14:08.209Z,31.42
2022-12-18T05:16:35.086Z,34.40
2022-12-18T05:19:01.964Z,32.75
2022-12-18T05:21:28.667Z,42.65
2022-12-18T05:23:55.417Z,35.88
2022-12-18T05:26:22.175Z,34.92
2022-12-18T05:28:48.914Z,34.53
2022-12-18T05:31:16.264Z,34.15
2022-12-18T05:33:43.787Z,38.78
2022-12-18T05:36:12.033Z,31.08
2022-12-18T05:38:40.244Z,38.90
2022-12-18T05:41:08.017Z,39.20
2022-12-18T05:43:37.456Z,37.53
2022-12-18T05:46:06.130Z,37.13
2022-12-18T05:48:32.955Z,32.78
2022-12-18T05:51:09.427Z,35.97
2022-12-18T05:53:38.093Z,35.13
2022-12-18T05:56:07.502Z,30.95
2022-12-18T05:58:34.445Z,31.90
2022-12-18T06:01:12.215Z,31.50
2022-12-18T06:03:39.345Z,29.80
2022-12-18T06:06:17.637Z,36.53
2022-12-18T06:08:46.750Z,36.08
2022-12-18T06:11:14.396Z,36.10
2022-12-18T06:13:41.418Z,38.55
2022-12-18T06:16:09.218Z,36.10
2022-12-18T06:18:36.168Z,43.10
2022-12-18T06:21:02.852Z,44.50
2022-12-18T06:23:29.798Z,44.55
2022-12-18T06:25:56.478Z,45.05
2022-12-18T06:28:23.137Z,50.35
2022-12-18T06:30:50.471Z,45.22
2022-12-18T06:33:17.528Z,47.42
2022-12-18T06:35:44.329Z,48.53
2022-12-18T06:38:11.045Z,53.55
2022-12-18T06:40:39.912Z,61.20
2022-12-18T06:43:07.198Z,57.90
2022-12-18T06:45:34.297Z,50.88
2022-12-18T06:48:01.737Z,55.80
2022-12-18T06:50:28.703Z,52.40
2022-12-18T06:52:55.346Z,65.00
2022-12-18T06:55:23.308Z,56.63
2022-12-18T06:57:50.033Z,46.95
2022-12-18T07:00:17.005Z,57.83
2022-12-18T07:02:43.855Z,56.92
2022-12-18T07:05:11.163Z,59.08
2022-12-18T07:07:38.090Z,52.03
2022-12-18T07:10:05.216Z,58.60
2022-12-18T07:12:31.940Z,46.08
2022-12-18T07:14:58.602Z,63.65
2022-12-18T07:17:25.326Z,50.05
2022-12-18T07:19:52.125Z,60.25
2022-12-18T07:22:18.979Z,41.78
2022-12-18T07:24:45.756Z,55.90
2022-12-18T07:27:12.463Z,49.50
2022-12-18T07:29:39.191Z,48.45
2022-12-18T07:32:06.538Z,53.03
2022-12-18T07:34:33.678Z,54.67
2022-12-18T07:37:00.482Z,51.45
2022-12-18T07:39:27.278Z,52.10
2022-12-18T07:42:14.939Z,59.63
2022-12-18T07:44:41.628Z,46.75
2022-12-18T07:47:11.934Z,52.92
2022-12-18T07:49:39.158Z,52.95
2022-12-18T07:52:05.907Z,51.35
2022-12-18T07:54:32.665Z,53.10
2022-12-18T07:57:00.408Z,48.08
2022-12-18T07:59:27.256Z,51.92
2022-12-18T08:01:54.034Z,59.17
2022-12-18T08:04:20.781Z,53.47
2022-12-18T08:06:48.493Z,113.07
2022-12-18T08:09:15.470Z,75.05
2022-12-18T08:11:42.222Z,93.85
2022-12-18T08:14:08.961Z,69.97
2022-12-18T08:16:36.172Z,61.85
2022-12-18T08:19:03.333Z,93.57
2022-12-18T08:21:31.947Z,90.32
2022-12-18T08:24:02.325Z,71.13
2022-12-18T08:26:31.361Z,51.05
2022-12-18T08:28:59.993Z,50.47
2022-12-18T08:31:28.573Z,48.92
2022-12-18T08:33:56.852Z,74.18
2022-12-18T08:36:24.751Z,46.55
2022-12-18T08:38:52.205Z,52.55
2022-12-18T08:41:20.278Z,80.72
2022-12-18T08:44:05.515Z,59.28
2022-12-18T08:46:40.403Z,55.45
2022-12-18T08:49:08.658Z,64.47
2022-12-18T08:51:35.618Z,52.13
2022-12-18T08:54:02.638Z,56.85
2022-12-18T08:56:30.954Z,127.75
2022-12-18T08:58:57.969Z,59.50
2022-12-18T09:01:25.074Z,60.65
2022-12-18T09:03:52.014Z,57.00
2022-12-18T09:06:21.730Z,65.55
2022-12-18T09:08:48.436Z,65.97
2022-12-18T09:11:26.642Z,57.50
2022-12-18T09:13:55.844Z,61.47
2022-12-18T09:16:27.352Z,67.32
2022-12-18T09:19:02.307Z,59.90
2022-12-18T09:21:32.891Z,65.07
2022-12-18T09:24:02.702Z,115.60
2022-12-18T09:26:29.420Z,56.75
2022-12-18T09:28:56.943Z,60.72
2022-12-18T09:31:25.443Z,53.83
2022-12-18T09:33:52.597Z,69.45
2022-12-18T09:36:19.678Z,69.50
2022-12-18T09:38:46.693Z,69.00
2022-12-18T09:41:32.576Z,58.83
2022-12-18T09:44:04.007Z,59.17
2022-12-18T09:46:37.427Z,75.93
2022-12-18T09:49:08.457Z,65.60
2022-12-18T09:51:59.198Z,63.95
2022-12-18T09:54:37.324Z,62.05
2022-12-18T09:57:05.215Z,55.88
2022-12-18T09:59:40.704Z,60.85
2022-12-18T10:02:22.968Z,49.22
2022-12-18T10:05:03.020Z,50.08
2022-12-18T10:07:41.023Z,54.72
2022-12-18T10:10:29.679Z,61.25
2022-12-18T10:13:27.404Z,58.75
2022-12-18T10:16:12.486Z,54.95
2022-12-18T10:19:00.694Z,64.05
2022-12-18T10:22:06.130Z,53.75
2022-12-18T10:24:44.555Z,46.67
2022-12-18T10:27:25.226Z,56.58
2022-12-18T10:29:52.039Z,52.72
2022-12-18T10:32:27.759Z,51.67
2022-12-18T10:35:00.512Z,58.33
2022-12-18T10:37:29.792Z,74.50
2022-12-18T10:40:10.754Z,69.18
2022-12-18T10:42:37.484Z,59.95
2022-12-18T10:45:15.285Z,68.07
2022-12-18T10:47:46.633Z,59.08
2022-12-18T10:51:10.182Z,60.95
2022-12-18T10:53:29.728Z,57.55
2022-12-18T10:56:03.089Z,67.45
2022-12-18T10:58:34.138Z,70.30
2022-12-18T11:01:07.448Z,62.25
2022-12-18T11:03:43.196Z,68.93
2022-12-18T11:06:15.890Z,63.45
2022-12-18T11:08:45.017Z,70.93
2022-12-18T11:11:23.550Z,64.20
2022-12-18T11:13:56.265Z,58.63
2022-12-18T11:16:23.173Z,71.93
2022-12-18T11:18:50.169Z,76.95
2022-12-18T11:21:17.573Z,55.95
2022-12-18T11:23:54.884Z,56.65
2022-12-18T11:26:22.720Z,59.50
2022-12-18T11:29:08.110Z,69.50
2022-12-18T11:31:35.126Z,65.70
2022-12-18T11:34:27.981Z,56.78
2022-12-18T11:36:53.297Z,67.03
2022-12-18T11:39:37.440Z,64.00
2022-12-18T11:42:18.117Z,74.22
2022-12-18T11:44:56.050Z,88.38
2022-12-18T11:47:44.401Z,56.50
2022-12-18T11:50:19.978Z,69.38
2022-12-18T11:52:49.348Z,62.97
2022-12-18T11:55:42.773Z,64.78
2022-12-18T11:58:16.325Z,64.28
2022-12-18T12:01:07.846Z,60.67
2022-12-18T12:03:46.708Z,60.83
2022-12-18T12:06:45.639Z,57.72
2022-12-18T12:10:02.948Z,64.35
2022-12-18T12:12:54.786Z,63.88
2022-12-18T12:15:33.175Z,59.55
2022-12-18T12:18:11.506Z,67.93
2022-12-18T12:20:54.286Z,65.55
2022-12-18T12:26:12.753Z,65.00
2022-12-18T12:28:51.765Z,60.40
2022-12-18T12:31:30.347Z,54.85
2022-12-18T12:34:23.130Z,62.53
2022-12-18T12:37:17.714Z,58.78
2022-12-18T12:39:46.988Z,60.20
2022-12-18T12:42:50.145Z,55.70
2022-12-18T12:45:24.162Z,60.03
2022-12-18T12:47:53.133Z,57.90
2022-12-18T12:50:21.327Z,59.10
2022-12-18T12:52:56.324Z,60.47
2022-12-18T12:55:28.610Z,59.53
2022-12-18T13:00:51.483Z,63.30
2022-12-18T13:03:32.447Z,61.22
2022-12-18T13:06:13.242Z,63.25
2022-12-18T13:08:58.064Z,65.15
2022-12-18T13:11:59.787Z,61.85
2022-12-18T13:14:47.343Z,58.92
2022-12-18T13:17:22.909Z,54.72
2022-12-18T13:19:51.741Z,58.90
2022-12-18T13:22:30.659Z,63.28
2022-12-18T13:24:57.404Z,60.38
2022-12-18T13:27:44.040Z,69.47
2022-12-18T13:30:32.925Z,57.30
2022-12-18T13:33:14.518Z,64.28
2022-12-18T13:35:51.710Z,68.53
2022-12-18T13:38:35.851Z,56.65
2022-12-18T13:41:03.774Z,63.28
2022-12-18T13:43:44.857Z,58.97
2022-12-18T13:46:22.979Z,64.30
2022-12-18T13:48:54.834Z,61.72
2022-12-18T13:51:22.644Z,65.18
2022-12-18T13:53:51.838Z,61.20
2022-12-18T13:56:22.275Z,66.03
2022-12-18T13:59:17.285Z,69.10
2022-12-18T14:01:48.209Z,69.50
2022-12-18T14:04:35.663Z,63.30
2022-12-18T14:07:16.565Z,63.63
2022-12-18T14:09:55.612Z,59.83
2022-12-18T14:12:51.721Z,59.58
2022-12-18T14:15:27.492Z,64.55
2022-12-18T14:17:59.234Z,65.38
2022-12-18T14:20:27.935Z,61.58
2022-12-18T14:22:57.455Z,62.50
2022-12-18T14:25:30.022Z,61.22
2022-12-18T14:28:08.830Z,61.78
2022-12-18T14:30:40.792Z,66.57
2022-12-18T14:33:12.268Z,60.20
2022-12-18T14:35:41.671Z,60.00
2022-12-18T14:38:17.170Z,83.85
2022-12-18T14:40:44.576Z,163.52
2022-12-18T14:43:12.115Z,68.45
2022-12-18T14:45:43.527Z,111.38
2022-12-18T14:48:46.850Z,98.88
2022-12-18T14:51:27.198Z,116.28
2022-12-18T14:53:59.047Z,100.97
2022-12-18T14:56:35.387Z,71.85
2022-12-18T14:59:05.431Z,111.85
2022-12-18T15:01:38.923Z,82.25
2022-12-18T15:04:24.017Z,116.13
2022-12-18T15:07:05.071Z,81.68
2022-12-18T15:09:31.847Z,86.22
2022-12-18T15:12:00.877Z,147.90
2022-12-18T15:14:35.806Z,87.28
2022-12-18T15:17:21.563Z,86.18
2022-12-18T15:19:52.512Z,85.93
2022-12-18T15:22:29.983Z,84.70
2022-12-18T15:24:58.736Z,75.93
2022-12-18T15:27:36.593Z,84.60
2022-12-18T15:30:09.183Z,72.35
2022-12-18T15:32:40.550Z,85.38
2022-12-18T15:35:15.121Z,63.20
2022-12-18T15:37:42.208Z,96.43
2022-12-18T15:40:13.727Z,95.40
2022-12-18T15:43:09.850Z,199.00
2022-12-18T15:45:36.555Z,92.70
2022-12-18T15:48:03.447Z,210.77
2022-12-18T15:50:30.190Z,90.47
2022-12-18T15:52:57.623Z,95.32
2022-12-18T15:55:43.687Z,78.85
2022-12-18T15:58:12.177Z,85.22
2022-12-18T16:00:40.999Z,83.05
2022-12-18T16:03:08.340Z,92.18
2022-12-18T16:05:35.214Z,114.55
2022-12-18T16:08:01.940Z,88.00
2022-12-18T16:10:29.029Z,89.78
2022-12-18T16:12:55.994Z,95.30
2022-12-18T16:15:24.985Z,82.50
2022-12-18T16:17:52.831Z,90.05
2022-12-18T16:20:22.785Z,91.40
2022-12-18T16:22:50.177Z,96.38
2022-12-18T16:25:43.315Z,80.38
2022-12-18T16:28:09.968Z,80.63
2022-12-18T16:30:38.605Z,85.63
2022-12-18T16:33:07.717Z,79.30
2022-12-18T16:35:34.699Z,85.13
2022-12-18T16:38:01.315Z,83.15
2022-12-18T16:40:28.104Z,81.63
2022-12-18T16:42:54.786Z,91.95
2022-12-18T16:45:21.501Z,83.10
2022-12-18T16:47:48.247Z,86.55
2022-12-18T16:50:14.920Z,87.22
2022-12-18T16:52:41.893Z,80.15
2022-12-18T16:55:09.625Z,79.22
2022-12-18T16:57:36.464Z,79.13
2022-12-18T17:00:06.062Z,74.05
2022-12-18T17:02:33.369Z,77.95
2022-12-18T17:05:00.729Z,75.55
2022-12-18T17:07:28.470Z,64.32
2022-12-18T17:09:55.654Z,76.65
2022-12-18T17:12:22.702Z,71.13
2022-12-18T17:14:49.528Z,77.88
2022-12-18T17:17:21.299Z,76.82
2022-12-18T17:19:49.052Z,69.63
2022-12-18T17:22:15.763Z,86.22
2022-12-18T17:24:42.372Z,77.28
2022-12-18T17:27:09.057Z,92.88
2022-12-18T17:29:35.964Z,100.82
2022-12-18T17:32:02.731Z,76.45
2022-12-18T17:34:41.680Z,68.72
2022-12-18T17:37:09.030Z,86.93
2022-12-18T17:39:35.861Z,70.68
2022-12-18T17:42:02.552Z,71.60
2022-12-18T17:44:29.187Z,73.80
2022-12-18T17:46:56.090Z,68.82
2022-12-18T17:49:22.767Z,75.00
2022-12-18T17:51:49.688Z,74.80
2022-12-18T17:54:16.371Z,78.63
2022-12-18T17:56:43.169Z,67.25
2022-12-18T17:59:09.802Z,65.60
2022-12-18T18:01:43.679Z,93.63
2022-12-18T18:04:11.438Z,80.07
2022-12-18T18:06:38.979Z,75.15
2022-12-18T18:09:09.234Z,69.72
2022-12-18T18:12:03.486Z,66.43
2022-12-18T18:14:30.826Z,68.25
2022-12-18T18:16:58.792Z,69.13
2022-12-18T18:19:32.147Z,65.10
2022-12-18T18:21:58.827Z,61.78
2022-12-18T18:24:25.805Z,73.68
2022-12-18T18:26:52.596Z,67.32
2022-12-18T18:29:21.846Z,65.10
2022-12-18T18:31:48.804Z,65.30
2022-12-18T18:34:18.057Z,61.47
2022-12-18T18:36:46.173Z,68.97
2022-12-18T18:39:13.802Z,63.83
2022-12-18T18:41:40.492Z,63.97
2022-12-18T18:44:10.584Z,63.47
2022-12-18T18:46:37.318Z,59.35
2022-12-18T18:49:05.500Z,52.80
2022-12-18T18:51:35.097Z,57.42
2022-12-18T18:54:02.363Z,60.90
2022-12-18T18:59:16.864Z,57.75
2022-12-18T19:01:44.236Z,56.42
2022-12-18T19:04:11.132Z,53.58
2022-12-18T19:06:37.930Z,59.83
2022-12-18T19:09:06.689Z,53.30
2022-12-18T19:11:52.376Z,51.03
2022-12-18T19:14:19.243Z,60.10
2022-12-18T19:16:45.953Z,54.88
2022-12-18T19:19:13.122Z,61.78
2022-12-18T19:21:41.134Z,56.15
2022-12-18T19:24:09.304Z,54.35
2022-12-18T19:26:37.514Z,52.83
2022-12-18T19:29:06.499Z,62.78
2022-12-18T19:31:36.361Z,63.08
2022-12-18T19:34:05.254Z,63.80
2022-12-18T19:36:33.181Z,62.53
2022-12-18T19:39:01.842Z,56.45
2022-12-18T19:41:31.605Z,62.03
2022-12-18T19:43:59.650Z,53.42
2022-12-18T19:46:26.404Z,60.00
2022-12-18T19:48:53.632Z,58.13
2022-12-18T19:51:23.584Z,60.78
2022-12-18T19:53:56.388Z,58.08
2022-12-18T19:56:26.715Z,55.45
2022-12-18T19:58:54.299Z,61.58
2022-12-18T20:01:23.255Z,65.78
2022-12-18T20:03:52.301Z,53.92
2022-12-18T20:06:25.840Z,57.03
2022-12-18T20:08:58.231Z,60.72
2022-12-18T20:11:28.593Z,60.95
2022-12-18T20:13:55.256Z,59.38
2022-12-18T20:16:22.065Z,53.42
2022-12-18T20:18:49.186Z,52.50
2022-12-18T20:21:16.115Z,61.15
2022-12-18T20:23:43.471Z,58.83
2022-12-18T20:26:10.858Z,49.13
2022-12-18T20:28:37.834Z,44.08
2022-12-18T20:31:13.861Z,50.03
2022-12-18T20:33:42.480Z,51.25
2022-12-18T20:36:16.944Z,49.33
2022-12-18T20:38:48.160Z,55.85
2022-12-18T20:41:18.945Z,44.63
2022-12-18T20:43:46.214Z,48.88
2022-12-18T20:46:14.935Z,52.30
2022-12-18T20:48:43.134Z,54.50
2022-12-18T20:51:13.080Z,53.53
2022-12-18T20:53:41.934Z,50.63
2022-12-18T20:56:13.644Z,52.45
2022-12-18T20:58:44.452Z,56.13
2022-12-18T21:01:14.449Z,49.15
2022-12-18T21:03:43.049Z,50.25
2022-12-18T21:06:10.781Z,50.83
2022-12-18T21:08:38.282Z,64.43
2022-12-18T21:11:38.480Z,70.85
2022-12-18T21:14:27.115Z,83.65
2022-12-18T21:16:54.676Z,61.90
2022-12-18T21:19:24.638Z,55.38
2022-12-18T21:21:56.233Z,57.10
2022-12-18T21:24:23.533Z,62.88
2022-12-18T21:26:50.477Z,57.42
2022-12-18T21:29:25.325Z,52.85
2022-12-18T21:31:53.813Z,64.63
2022-12-18T21:34:29.159Z,59.92
2022-12-18T21:36:57.804Z,62.22
2022-12-18T21:39:25.574Z,56.78
2022-12-18T21:42:10.996Z,62.53
2022-12-18T21:44:41.629Z,58.40
2022-12-18T21:47:22.582Z,59.30
2022-12-18T21:49:51.686Z,60.47
2022-12-18T21:52:18.718Z,53.50
2022-12-18T21:54:45.502Z,54.88
2022-12-18T21:57:13.368Z,55.83
2022-12-18T21:59:41.767Z,55.50
2022-12-18T22:02:16.122Z,53.13
2022-12-18T22:04:44.142Z,46.13
2022-12-18T22:07:11.639Z,52.90
2022-12-18T22:09:38.940Z,51.17
2022-12-18T22:12:06.188Z,54.55
2022-12-18T22:14:32.895Z,51.28
2022-12-18T22:16:59.650Z,57.38
2022-12-18T22:19:26.875Z,55.60
2022-12-18T22:21:54.256Z,49.67
2022-12-18T22:24:23.293Z,55.55
2022-12-18T22:26:51.502Z,54.17
2022-12-18T22:29:41.782Z,51.85
2022-12-18T22:32:12.809Z,55.53
2022-12-18T22:34:41.942Z,55.15
2022-12-18T22:37:11.364Z,50.22
2022-12-18T22:51:50.572Z,52.35
2022-12-18T22:54:17.320Z,53.85
2022-12-18T22:56:44.320Z,50.50
2022-12-18T22:59:22.657Z,56.25
2022-12-18T23:01:51.446Z,49.67
2022-12-18T23:04:28.423Z,55.13
2022-12-18T23:07:00.040Z,66.63
2022-12-18T23:09:26.737Z,55.35
2022-12-18T23:11:53.413Z,52.25
2022-12-18T23:14:20.459Z,61.53
2022-12-18T23:16:47.098Z,77.18
2022-12-18T23:19:15.841Z,58.92
2022-12-18T23:21:42.544Z,48.80
2022-12-18T23:24:09.387Z,51.53
2022-12-18T23:26:36.588Z,59.53
2022-12-18T23:29:04.073Z,55.30
2022-12-18T23:31:39.129Z,52.13
2022-12-18T23:34:07.034Z,55.10
2022-12-18T23:36:45.198Z,51.55
2022-12-18T23:39:29.124Z,50.45
2022-12-18T23:42:00.636Z,55.28
2022-12-18T23:44:27.912Z,62.20
2022-12-18T23:46:55.056Z,66.07
2022-12-18T23:49:21.978Z,54.35
2022-12-18T23:51:48.895Z,55.50
2022-12-18T23:54:15.602Z,50.25
2022-12-18T23:56:42.336Z,55.53
2022-12-18T23:59:09.129Z,54.00
